logo
Search for airport 
image banner adimage banner adimage banner ad
image banner ad

EI0010 - Castletownbere

Located in , Ireland

ICAO - , IATA -

Data provided by Airmate  

General information

Coordinates: N51°38'53" W9°54'0"
Elevation is 18 feet MSL.
 
View others Airports in County Cork

Operational data

Special qualification required
Current time UTC:
Current local time:
Weather at : EIKY - Kerry ( 65 km )
METAR: EIKY 191530Z 32009KT 280V340 9999 BKN022 13/10 Q1025
TAF: TAF EIKY 191400Z 1915/1924 32008KT 9999 FEW014 BKN020 PROB40 TEMPO 1922/1924 0500 FG BKN001
View NOTAMs / SUP AIP / TFR affecting this airport [VIEW]
Communications frequencies: [VIEW]

Runways:

Airport contact information

Address: Ireland

Satellite view of EI0010